createdAt,value
2023-05-22T00:00:46.641Z,23.16
2023-05-22T00:03:15.940Z,23.16
2023-05-22T00:05:45.395Z,23.15
2023-05-22T00:08:14.662Z,23.14
2023-05-22T00:10:43.993Z,23.13
2023-05-22T00:13:12.902Z,23.14
2023-05-22T00:15:42.184Z,23.13
2023-05-22T00:18:11.413Z,23.12
2023-05-22T00:20:40.981Z,23.12
2023-05-22T00:23:11.395Z,23.10
2023-05-22T00:25:41.068Z,23.11
2023-05-22T00:28:09.661Z,23.10
2023-05-22T00:30:38.141Z,23.09
2023-05-22T00:33:07.820Z,23.09
2023-05-22T00:35:35.799Z,23.07
2023-05-22T00:38:04.353Z,23.06
2023-05-22T00:40:33.387Z,23.06
2023-05-22T00:43:01.762Z,23.05
2023-05-22T00:45:30.773Z,23.04
2023-05-22T00:47:59.301Z,23.04
2023-05-22T00:50:27.967Z,23.03
2023-05-22T00:52:56.377Z,23.03
2023-05-22T00:55:24.859Z,23.03
2023-05-22T00:57:53.365Z,23.02
2023-05-22T01:00:22.234Z,23.01
2023-05-22T01:02:52.249Z,23.01
2023-05-22T01:05:21.337Z,23.00
2023-05-22T01:07:50.769Z,22.99
2023-05-22T01:10:19.709Z,23.00
2023-05-22T01:12:48.548Z,23.00
2023-05-22T01:15:18.894Z,23.00
2023-05-22T01:17:47.948Z,22.99
2023-05-22T01:20:16.442Z,23.00
2023-05-22T01:22:45.901Z,22.98
2023-05-22T01:25:14.232Z,22.98
2023-05-22T01:27:43.002Z,22.98
2023-05-22T01:30:11.514Z,22.97
2023-05-22T01:32:40.648Z,22.96
2023-05-22T01:35:10.310Z,22.96
2023-05-22T01:37:39.117Z,22.96
2023-05-22T01:40:07.478Z,22.96
2023-05-22T01:42:38.178Z,22.94
2023-05-22T01:45:06.821Z,22.93
2023-05-22T01:47:34.755Z,22.93
2023-05-22T01:50:03.313Z,22.92
2023-05-22T01:52:32.264Z,22.91
2023-05-22T01:55:01.190Z,22.91
2023-05-22T01:57:30.198Z,22.92
2023-05-22T01:59:59.325Z,22.90
2023-05-22T02:02:28.525Z,22.89
2023-05-22T02:04:57.596Z,22.88
2023-05-22T02:07:26.466Z,22.87
2023-05-22T02:09:56.604Z,22.88
2023-05-22T02:12:25.440Z,22.88
2023-05-22T02:14:54.423Z,22.86
2023-05-22T02:17:23.560Z,22.86
2023-05-22T02:19:52.008Z,22.86
2023-05-22T02:22:22.031Z,22.86
2023-05-22T02:24:50.911Z,22.86
2023-05-22T02:27:19.870Z,22.86
2023-05-22T02:29:48.796Z,22.86
2023-05-22T02:32:17.488Z,22.85
2023-05-22T02:34:46.287Z,22.85
2023-05-22T02:37:15.282Z,22.85
2023-05-22T02:39:44.282Z,22.85
2023-05-22T02:42:13.330Z,22.83
2023-05-22T02:44:41.966Z,22.82
2023-05-22T02:47:10.969Z,22.82
2023-05-22T02:49:40.003Z,22.81
2023-05-22T02:52:08.214Z,22.82
2023-05-22T02:54:36.040Z,22.82
2023-05-22T02:57:04.556Z,22.82
2023-05-22T02:59:33.019Z,22.80
2023-05-22T03:02:02.002Z,22.81
2023-05-22T03:04:30.540Z,22.80
2023-05-22T03:06:59.496Z,22.80
2023-05-22T03:09:28.749Z,22.80
2023-05-22T03:11:57.024Z,22.79
2023-05-22T03:14:26.828Z,22.79
2023-05-22T03:16:55.377Z,22.78
2023-05-22T03:19:24.774Z,22.78
2023-05-22T03:21:53.986Z,22.78
2023-05-22T03:24:23.693Z,22.78
2023-05-22T03:26:52.716Z,22.76
2023-05-22T03:29:34.229Z,22.76
2023-05-22T03:32:03.548Z,22.75
2023-05-22T03:34:32.941Z,22.76
2023-05-22T03:37:03.227Z,22.75
2023-05-22T03:39:32.765Z,22.74
2023-05-22T03:42:08.265Z,22.74
2023-05-22T03:44:37.458Z,22.74
2023-05-22T03:47:07.297Z,22.75
2023-05-22T03:49:35.793Z,22.75
2023-05-22T03:52:05.891Z,22.74
2023-05-22T03:54:34.423Z,22.76
2023-05-22T03:57:04.689Z,22.75
2023-05-22T03:59:33.812Z,22.75
2023-05-22T04:02:02.167Z,22.75
2023-05-22T04:04:31.463Z,22.74
2023-05-22T04:06:59.948Z,22.75
2023-05-22T04:09:28.414Z,22.76
2023-05-22T04:11:59.329Z,22.77
2023-05-22T04:14:27.789Z,22.79
2023-05-22T04:16:56.274Z,22.78
2023-05-22T04:19:25.755Z,22.78
2023-05-22T04:21:54.817Z,22.79
2023-05-22T04:24:23.819Z,22.80
2023-05-22T04:26:52.369Z,22.81
2023-05-22T04:29:20.914Z,22.83
2023-05-22T04:31:49.861Z,22.83
2023-05-22T04:34:18.637Z,22.83
2023-05-22T04:36:47.614Z,22.84
2023-05-22T04:39:16.723Z,22.86
2023-05-22T04:41:44.996Z,22.86
2023-05-22T04:44:13.938Z,22.88
2023-05-22T04:46:42.863Z,22.90
2023-05-22T04:49:11.851Z,22.91
2023-05-22T04:51:41.275Z,22.94
2023-05-22T04:54:10.421Z,22.94
2023-05-22T04:56:40.651Z,22.95
2023-05-22T04:59:09.851Z,22.96
2023-05-22T05:01:39.297Z,22.96
2023-05-22T05:04:07.733Z,22.97
2023-05-22T05:06:36.770Z,22.98
2023-05-22T05:09:05.394Z,22.99
2023-05-22T05:11:34.434Z,22.98
2023-05-22T05:14:02.876Z,22.98
2023-05-22T05:16:31.616Z,22.99
2023-05-22T05:19:00.152Z,23.01
2023-05-22T05:21:30.204Z,23.02
2023-05-22T05:24:01.810Z,23.05
2023-05-22T05:26:31.113Z,23.07
2023-05-22T05:29:00.227Z,23.09
2023-05-22T05:31:49.190Z,23.11
2023-05-22T05:34:30.750Z,23.12
2023-05-22T05:37:02.403Z,23.14
2023-05-22T05:39:32.124Z,23.17
2023-05-22T05:42:02.937Z,23.20
2023-05-22T05:44:32.510Z,23.23
2023-05-22T05:47:02.108Z,23.25
2023-05-22T05:49:31.891Z,23.28
2023-05-22T05:52:02.089Z,23.32
2023-05-22T05:54:31.797Z,23.36
2023-05-22T05:57:06.053Z,23.41
2023-05-22T05:59:36.253Z,23.45
2023-05-22T06:02:24.119Z,23.50
2023-05-22T06:04:56.078Z,23.56
2023-05-22T06:07:24.726Z,23.62
2023-05-22T06:09:54.800Z,23.66
2023-05-22T06:12:35.024Z,23.74
2023-05-22T06:15:04.861Z,23.80
2023-05-22T06:17:34.806Z,23.87
2023-05-22T06:20:03.263Z,23.95
2023-05-22T06:22:32.077Z,24.03
2023-05-22T06:25:01.238Z,24.07
2023-05-22T06:27:33.079Z,24.10
2023-05-22T06:30:04.513Z,24.15
2023-05-22T06:32:39.512Z,24.17
2023-05-22T06:35:09.091Z,24.20
2023-05-22T06:37:38.809Z,24.21
2023-05-22T06:40:07.707Z,24.23
2023-05-22T06:42:43.660Z,24.25
2023-05-22T06:45:33.302Z,24.27
2023-05-22T06:48:18.515Z,24.27
2023-05-22T06:51:09.032Z,24.29
2023-05-22T06:53:38.158Z,24.31
2023-05-22T06:56:12.344Z,24.32
2023-05-22T06:58:53.313Z,24.34
2023-05-22T07:01:25.188Z,24.36
2023-05-22T07:04:04.876Z,24.38
2023-05-22T07:06:38.759Z,24.41
2023-05-22T07:09:08.273Z,24.42
2023-05-22T07:11:36.713Z,24.45
2023-05-22T07:14:05.226Z,24.48
2023-05-22T07:16:33.687Z,24.50
2023-05-22T07:19:02.640Z,24.53
2023-05-22T07:21:31.112Z,24.56
2023-05-22T07:24:00.164Z,24.60
2023-05-22T07:26:30.154Z,24.60
2023-05-22T07:29:07.356Z,24.65
2023-05-22T07:31:36.076Z,24.67
2023-05-22T07:34:04.847Z,24.72
2023-05-22T07:36:32.858Z,24.74
2023-05-22T07:39:01.123Z,24.80
2023-05-22T07:41:29.812Z,24.86
2023-05-22T07:43:58.951Z,24.97
2023-05-22T07:46:32.852Z,25.08
2023-05-22T07:49:09.885Z,25.20
2023-05-22T07:51:42.075Z,25.37
2023-05-22T07:54:12.235Z,25.56
2023-05-22T07:56:42.372Z,25.76
2023-05-22T07:59:11.361Z,25.96
2023-05-22T08:01:41.124Z,26.16
2023-05-22T08:04:10.194Z,26.37
2023-05-22T08:06:44.766Z,26.61
2023-05-22T08:09:13.380Z,26.83
2023-05-22T08:11:41.698Z,27.05
2023-05-22T08:14:11.031Z,27.30
2023-05-22T08:16:40.337Z,27.56
2023-05-22T08:19:10.132Z,27.81
2023-05-22T08:21:39.219Z,28.07
2023-05-22T08:24:08.546Z,28.31
2023-05-22T08:26:37.521Z,28.56
2023-05-22T08:29:07.137Z,28.81
2023-05-22T08:31:36.756Z,29.04
2023-05-22T08:34:05.893Z,29.26
2023-05-22T08:36:35.219Z,29.47
2023-05-22T08:39:04.601Z,29.69
2023-05-22T08:41:34.297Z,29.89
2023-05-22T08:44:03.284Z,30.10
2023-05-22T08:46:32.236Z,30.31
2023-05-22T08:49:01.210Z,30.54
2023-05-22T08:51:30.162Z,30.75
2023-05-22T08:53:59.627Z,30.92
2023-05-22T08:56:29.758Z,31.09
2023-05-22T08:58:58.812Z,31.29
2023-05-22T09:01:28.222Z,31.39
2023-05-22T09:03:57.602Z,31.46
2023-05-22T09:06:26.955Z,31.20
2023-05-22T09:08:56.167Z,30.84
2023-05-22T09:11:25.121Z,30.54
2023-05-22T09:13:54.029Z,30.40
2023-05-22T09:16:23.145Z,30.33
2023-05-22T09:18:52.089Z,30.62
2023-05-22T09:21:29.567Z,31.00
2023-05-22T09:23:59.336Z,31.11
2023-05-22T09:26:28.694Z,30.87
2023-05-22T09:28:58.134Z,30.52
2023-05-22T09:31:27.261Z,30.13
2023-05-22T09:33:55.913Z,29.79
2023-05-22T09:36:24.248Z,29.55
2023-05-22T09:38:53.362Z,29.74
2023-05-22T09:41:22.123Z,30.32
2023-05-22T09:43:50.731Z,30.94
2023-05-22T09:46:19.624Z,31.33
2023-05-22T09:48:49.179Z,31.17
2023-05-22T09:51:18.094Z,30.89
2023-05-22T09:53:47.496Z,30.56
2023-05-22T09:56:19.247Z,30.38
2023-05-22T09:58:52.763Z,30.62
2023-05-22T10:01:22.031Z,30.90
2023-05-22T10:03:50.914Z,30.91
2023-05-22T10:06:19.851Z,30.66
2023-05-22T10:08:49.345Z,30.43
2023-05-22T10:11:18.182Z,30.72
2023-05-22T10:13:47.455Z,31.20
2023-05-22T10:16:16.796Z,31.79
2023-05-22T10:18:45.986Z,32.39
2023-05-22T10:21:15.470Z,32.96
2023-05-22T10:23:44.403Z,33.48
2023-05-22T10:26:13.214Z,33.86
2023-05-22T10:28:42.440Z,34.13
2023-05-22T10:31:11.108Z,34.13
2023-05-22T10:34:02.450Z,33.66
2023-05-22T10:36:31.954Z,33.10
2023-05-22T10:39:00.797Z,32.52
2023-05-22T10:41:30.103Z,32.20
2023-05-22T10:43:59.366Z,32.39
2023-05-22T10:46:28.447Z,32.84
2023-05-22T10:48:57.674Z,33.31
2023-05-22T10:51:26.616Z,33.55
2023-05-22T10:53:55.587Z,33.30
2023-05-22T10:56:25.752Z,32.85
2023-05-22T10:58:54.915Z,32.37
2023-05-22T11:01:24.246Z,31.95
2023-05-22T11:03:57.624Z,31.57
2023-05-22T11:06:26.369Z,31.52
2023-05-22T11:08:55.319Z,31.76
2023-05-22T11:11:24.841Z,32.09
2023-05-22T11:13:53.410Z,32.19
2023-05-22T11:16:22.265Z,32.01
2023-05-22T11:18:51.589Z,31.68
2023-05-22T11:21:19.844Z,31.35
2023-05-22T11:23:48.399Z,31.09
2023-05-22T11:26:17.329Z,30.95
2023-05-22T11:28:46.681Z,31.01
2023-05-22T11:31:15.636Z,31.30
2023-05-22T11:33:45.238Z,31.74
2023-05-22T11:36:14.558Z,32.23
2023-05-22T11:38:43.189Z,32.74
2023-05-22T11:41:11.517Z,33.19
2023-05-22T11:43:40.838Z,33.62
2023-05-22T11:46:10.300Z,34.03
2023-05-22T11:48:39.825Z,33.88
2023-05-22T11:51:09.219Z,33.89
2023-05-22T11:53:38.114Z,34.37
2023-05-22T11:56:06.656Z,34.82
2023-05-22T11:58:35.376Z,34.82
2023-05-22T12:01:04.660Z,35.20
2023-05-22T12:03:34.158Z,35.66
2023-05-22T12:06:03.772Z,36.07
2023-05-22T12:08:32.798Z,36.28
2023-05-22T12:11:01.806Z,36.31
2023-05-22T12:13:31.190Z,36.29
2023-05-22T12:16:00.989Z,36.49
2023-05-22T12:18:30.493Z,36.61
2023-05-22T12:20:59.516Z,36.04
2023-05-22T12:23:28.465Z,36.22
2023-05-22T12:25:57.956Z,36.68
2023-05-22T12:28:26.845Z,36.32
2023-05-22T12:30:56.227Z,35.42
2023-05-22T12:33:25.306Z,35.56
2023-05-22T12:35:54.883Z,36.03
2023-05-22T12:38:23.837Z,35.75
2023-05-22T12:40:52.952Z,36.32
2023-05-22T12:43:21.262Z,36.95
2023-05-22T12:45:50.082Z,37.40
2023-05-22T12:48:19.416Z,37.81
2023-05-22T12:50:48.740Z,37.97
2023-05-22T12:53:17.740Z,36.93
2023-05-22T12:55:46.748Z,36.59
2023-05-22T12:58:16.242Z,37.10
2023-05-22T13:00:45.595Z,37.63
2023-05-22T13:03:15.258Z,37.39
2023-05-22T13:05:44.178Z,36.12
2023-05-22T13:08:12.411Z,35.29
2023-05-22T13:10:41.193Z,35.46
2023-05-22T13:13:09.983Z,35.38
2023-05-22T13:15:39.613Z,34.55
2023-05-22T13:18:09.148Z,33.55
2023-05-22T13:20:38.533Z,32.64
2023-05-22T13:23:07.424Z,31.88
2023-05-22T13:25:36.331Z,31.22
2023-05-22T13:28:04.924Z,30.68
2023-05-22T13:30:33.062Z,30.23
2023-05-22T13:33:03.548Z,29.82
2023-05-22T13:35:33.139Z,29.44
2023-05-22T13:38:02.510Z,29.12
2023-05-22T13:40:31.676Z,28.81
2023-05-22T13:43:00.361Z,28.52
2023-05-22T13:45:30.679Z,28.27
2023-05-22T13:48:00.193Z,28.04
2023-05-22T13:50:28.959Z,27.82
2023-05-22T13:52:58.301Z,27.61
2023-05-22T13:55:27.080Z,27.41
2023-05-22T13:57:55.980Z,27.21
2023-05-22T14:00:24.964Z,27.03
2023-05-22T14:02:53.554Z,26.87
2023-05-22T14:05:23.587Z,26.74
2023-05-22T14:07:55.048Z,26.59
2023-05-22T14:10:26.205Z,26.48
2023-05-22T14:12:55.086Z,26.38
2023-05-22T14:15:24.357Z,26.29
2023-05-22T14:17:53.226Z,26.22
2023-05-22T14:20:22.483Z,26.15
2023-05-22T14:22:57.836Z,26.07
2023-05-22T14:25:27.412Z,26.01
2023-05-22T14:27:56.595Z,25.96
2023-05-22T14:30:25.349Z,25.92
2023-05-22T14:32:54.750Z,25.89
2023-05-22T14:35:24.061Z,25.87
2023-05-22T14:37:53.033Z,25.86
2023-05-22T14:40:22.629Z,25.86
2023-05-22T14:42:53.968Z,25.90
2023-05-22T14:45:23.395Z,26.02
2023-05-22T14:47:52.892Z,26.17
2023-05-22T14:50:22.307Z,26.36
2023-05-22T14:52:51.829Z,26.58
2023-05-22T14:55:21.565Z,26.77
2023-05-22T14:57:50.970Z,26.91
2023-05-22T15:00:20.419Z,27.01
2023-05-22T15:02:49.868Z,27.07
2023-05-22T15:05:19.309Z,27.12
2023-05-22T15:07:51.260Z,27.12
2023-05-22T15:10:21.467Z,27.11
2023-05-22T15:12:51.189Z,27.09
2023-05-22T15:15:20.595Z,27.03
2023-05-22T15:17:49.448Z,26.99
2023-05-22T15:20:18.860Z,26.95
2023-05-22T15:22:48.209Z,26.92
2023-05-22T15:25:17.589Z,26.87
2023-05-22T15:27:46.674Z,26.83
2023-05-22T15:30:15.979Z,26.79
2023-05-22T15:32:45.343Z,26.74
2023-05-22T15:35:14.754Z,26.69
2023-05-22T15:37:44.112Z,26.65
2023-05-22T15:40:13.736Z,26.60
2023-05-22T15:42:42.746Z,26.56
2023-05-22T15:45:11.618Z,26.51
2023-05-22T15:47:40.495Z,26.46
2023-05-22T15:50:09.853Z,26.42
2023-05-22T15:52:39.197Z,26.39
2023-05-22T15:55:08.360Z,26.37
2023-05-22T15:57:36.802Z,26.33
2023-05-22T16:00:05.622Z,26.30
2023-05-22T16:02:34.731Z,26.26
2023-05-22T16:05:04.179Z,26.23
2023-05-22T16:07:33.442Z,26.21
2023-05-22T16:10:02.390Z,26.16
2023-05-22T16:12:31.765Z,26.13
2023-05-22T16:15:02.771Z,26.08
2023-05-22T16:17:32.814Z,26.04
2023-05-22T16:20:02.317Z,26.00
2023-05-22T16:22:46.700Z,25.96
2023-05-22T16:25:17.571Z,25.92
2023-05-22T16:27:46.386Z,25.89
2023-05-22T16:30:15.348Z,25.86
2023-05-22T16:32:44.844Z,25.82
2023-05-22T16:35:13.747Z,25.79
2023-05-22T16:37:42.678Z,25.75
2023-05-22T16:40:12.204Z,25.73
2023-05-22T16:42:41.259Z,25.69
2023-05-22T16:45:10.592Z,25.65
2023-05-22T16:47:40.137Z,25.62
2023-05-22T16:50:09.664Z,25.59
2023-05-22T16:52:38.984Z,25.55
2023-05-22T16:55:08.278Z,25.53
2023-05-22T16:57:37.196Z,25.49
2023-05-22T17:00:06.252Z,25.47
2023-05-22T17:02:35.923Z,25.45
2023-05-22T17:05:04.917Z,25.42
2023-05-22T17:07:34.372Z,25.39
2023-05-22T17:10:03.286Z,25.36
2023-05-22T17:12:32.291Z,25.33
2023-05-22T17:15:00.930Z,25.30
2023-05-22T17:17:30.311Z,25.28
2023-05-22T17:19:59.097Z,25.27
2023-05-22T17:22:28.461Z,25.22
2023-05-22T17:24:57.277Z,25.19
2023-05-22T17:27:35.411Z,25.18
2023-05-22T17:30:05.711Z,25.15
2023-05-22T17:32:34.493Z,25.13
2023-05-22T17:35:02.891Z,25.11
2023-05-22T17:37:31.131Z,25.09
2023-05-22T17:40:00.241Z,25.07
2023-05-22T17:42:28.446Z,25.06
2023-05-22T17:44:57.261Z,25.03
2023-05-22T17:47:26.612Z,25.01
2023-05-22T17:49:55.629Z,25.00
2023-05-22T17:52:25.062Z,24.98
2023-05-22T17:54:54.001Z,24.95
2023-05-22T17:57:22.970Z,24.94
2023-05-22T17:59:52.371Z,24.92
2023-05-22T18:02:21.757Z,24.91
2023-05-22T18:04:50.951Z,24.89
2023-05-22T18:07:20.396Z,24.87
2023-05-22T18:09:49.278Z,24.84
2023-05-22T18:12:31.169Z,24.83
2023-05-22T18:15:02.012Z,24.80
2023-05-22T18:17:31.185Z,24.79
2023-05-22T18:20:00.171Z,24.77
2023-05-22T18:22:29.444Z,24.75
2023-05-22T18:24:57.942Z,24.73
2023-05-22T18:27:26.044Z,24.72
2023-05-22T18:29:54.934Z,24.70
2023-05-22T18:32:24.297Z,24.69
2023-05-22T18:34:53.809Z,24.67
2023-05-22T18:37:22.770Z,24.66
2023-05-22T18:39:52.224Z,24.65
2023-05-22T18:42:21.640Z,24.64
2023-05-22T18:44:50.543Z,24.62
2023-05-22T18:47:19.929Z,24.62
2023-05-22T18:49:48.946Z,24.61
2023-05-22T18:52:17.566Z,24.60
2023-05-22T18:54:45.758Z,24.58
2023-05-22T18:57:15.125Z,24.55
2023-05-22T18:59:44.622Z,24.55
2023-05-22T19:02:13.979Z,24.51
2023-05-22T19:04:43.663Z,24.52
2023-05-22T19:07:13.048Z,24.50
2023-05-22T19:09:42.215Z,24.47
2023-05-22T19:12:10.253Z,24.44
2023-05-22T19:14:38.559Z,24.43
2023-05-22T19:17:07.991Z,24.42
2023-05-22T19:19:37.159Z,24.39
2023-05-22T19:22:06.320Z,24.36
2023-05-22T19:24:35.493Z,24.32
2023-05-22T19:27:03.652Z,24.30
2023-05-22T19:29:32.598Z,24.27
2023-05-22T19:32:02.203Z,24.25
2023-05-22T19:34:31.032Z,24.23
2023-05-22T19:37:00.413Z,24.20
2023-05-22T19:39:29.373Z,24.18
2023-05-22T19:41:58.658Z,24.14
2023-05-22T19:44:27.986Z,24.11
2023-05-22T19:46:57.484Z,24.09
2023-05-22T19:49:26.905Z,24.08
2023-05-22T19:51:56.295Z,24.05
2023-05-22T19:54:24.556Z,24.03
2023-05-22T19:56:54.219Z,24.02
2023-05-22T19:59:23.173Z,24.00
2023-05-22T20:01:53.631Z,23.99
2023-05-22T20:04:23.441Z,23.96
2023-05-22T20:06:52.284Z,23.95
2023-05-22T20:09:21.534Z,23.93
2023-05-22T20:11:50.891Z,23.92
2023-05-22T20:14:19.857Z,23.90
2023-05-22T20:16:49.412Z,23.91
2023-05-22T20:19:18.947Z,23.88
2023-05-22T20:21:49.858Z,23.87
2023-05-22T20:24:19.242Z,23.85
2023-05-22T20:26:47.503Z,23.85
2023-05-22T20:29:16.128Z,23.83
2023-05-22T20:31:45.039Z,23.81
2023-05-22T20:34:14.429Z,23.80
2023-05-22T20:36:43.307Z,23.79
2023-05-22T20:39:12.582Z,23.79
2023-05-22T20:41:42.027Z,23.77
2023-05-22T20:44:11.489Z,23.74
2023-05-22T20:46:40.438Z,23.75
2023-05-22T20:49:09.354Z,23.74
2023-05-22T20:51:38.382Z,23.73
2023-05-22T20:54:07.684Z,23.74
2023-05-22T20:56:36.857Z,23.71
2023-05-22T20:59:05.676Z,23.71
2023-05-22T21:01:34.796Z,23.70
2023-05-22T21:04:03.895Z,23.68
2023-05-22T21:06:32.976Z,23.68
2023-05-22T21:09:01.837Z,23.67
2023-05-22T21:11:30.723Z,23.66
2023-05-22T21:14:00.003Z,23.65
2023-05-22T21:16:29.453Z,23.64
2023-05-22T21:18:58.446Z,23.63
2023-05-22T21:21:27.230Z,23.61
2023-05-22T21:23:56.502Z,23.61
2023-05-22T21:26:25.757Z,23.59
2023-05-22T21:28:54.821Z,23.60
2023-05-22T21:31:24.012Z,23.59
2023-05-22T21:33:52.904Z,23.59
2023-05-22T21:36:21.831Z,23.57
2023-05-22T21:38:51.104Z,23.57
2023-05-22T21:41:20.472Z,23.57
2023-05-22T21:43:50.061Z,23.57
2023-05-22T21:46:19.062Z,23.54
2023-05-22T21:48:48.356Z,23.53
2023-05-22T21:51:17.597Z,23.52
2023-05-22T21:53:46.841Z,23.50
2023-05-22T21:56:16.103Z,23.49
2023-05-22T21:58:44.980Z,23.48
2023-05-22T22:01:14.335Z,23.48
2023-05-22T22:03:43.663Z,23.46
2023-05-22T22:06:12.628Z,23.46
2023-05-22T22:08:42.040Z,23.43
2023-05-22T22:11:11.439Z,23.43
2023-05-22T22:13:40.375Z,23.42
2023-05-22T22:16:09.458Z,23.42
2023-05-22T22:18:38.212Z,23.40
2023-05-22T22:21:07.247Z,23.40
2023-05-22T22:23:35.512Z,23.38
2023-05-22T22:26:04.439Z,23.37
2023-05-22T22:28:33.240Z,23.37
2023-05-22T22:31:02.467Z,23.36
2023-05-22T22:33:31.795Z,23.37
2023-05-22T22:36:01.059Z,23.37
2023-05-22T22:38:30.304Z,23.36
2023-05-22T22:40:59.149Z,23.36
2023-05-22T22:43:28.445Z,23.35
2023-05-22T22:45:57.914Z,23.34
2023-05-22T22:48:26.862Z,23.34
2023-05-22T22:50:56.214Z,23.32
2023-05-22T22:53:25.612Z,23.31
2023-05-22T22:55:55.074Z,23.30
2023-05-22T22:58:24.525Z,23.29
2023-05-22T23:00:53.383Z,23.29
2023-05-22T23:03:21.981Z,23.29
2023-05-22T23:05:50.798Z,23.28
2023-05-22T23:08:19.760Z,23.29
2023-05-22T23:10:48.744Z,23.28
2023-05-22T23:13:17.635Z,23.27
2023-05-22T23:15:46.967Z,23.27
2023-05-22T23:18:16.501Z,23.25
2023-05-22T23:20:45.972Z,23.26
2023-05-22T23:23:15.400Z,23.26
2023-05-22T23:25:44.709Z,23.25
2023-05-22T23:28:14.028Z,23.25
2023-05-22T23:30:42.996Z,23.24
2023-05-22T23:33:11.924Z,23.25
2023-05-22T23:35:41.034Z,23.24
2023-05-22T23:38:10.771Z,23.24
2023-05-22T23:40:39.804Z,23.25
2023-05-22T23:43:09.093Z,23.23
2023-05-22T23:45:38.691Z,23.21
2023-05-22T23:48:08.074Z,23.22
2023-05-22T23:50:36.818Z,23.21
2023-05-22T23:53:06.053Z,23.20
2023-05-22T23:55:34.922Z,23.20
2023-05-22T23:58:03.484Z,23.19
